createdAt,value
2022-08-12T00:00:00.669Z,100863.53
2022-08-12T00:02:46.482Z,100860.75
2022-08-12T00:05:32.690Z,100864.34
2022-08-12T00:08:28.579Z,100873.75
2022-08-12T00:11:21.623Z,100861.59
2022-08-12T00:14:07.804Z,100856.38
2022-08-12T00:16:53.835Z,100858.00
2022-08-12T00:19:39.992Z,100860.75
2022-08-12T00:22:26.445Z,100863.53
2022-08-12T00:25:19.485Z,100859.13
2022-08-12T00:28:08.321Z,100845.03
2022-08-12T00:30:54.135Z,100847.78
2022-08-12T00:33:52.558Z,100845.88
2022-08-12T00:36:48.867Z,100845.31
2022-08-12T00:39:37.012Z,100853.84
2022-08-12T00:42:10.847Z,100851.94
2022-08-12T00:44:43.234Z,100845.56
2022-08-12T00:47:24.574Z,100839.78
2022-08-12T00:49:54.603Z,100834.53
2022-08-12T00:52:22.378Z,100840.06
2022-08-12T00:54:54.628Z,100843.94
2022-08-12T00:57:30.567Z,100843.94
2022-08-12T00:59:59.859Z,100835.94
2022-08-12T01:02:29.874Z,100840.91
2022-08-12T01:05:39.676Z,100837.59
2022-08-12T01:08:25.668Z,100830.97
2022-08-12T01:11:12.074Z,100828.19
2022-08-12T01:13:41.634Z,100836.75
2022-08-12T01:16:09.434Z,100832.34
2022-08-12T01:18:38.387Z,100841.19
2022-08-12T01:21:27.322Z,100828.78
2022-08-12T01:24:32.150Z,100834.28
2022-08-12T01:27:01.278Z,100830.13
2022-08-12T01:29:33.002Z,100826.56
2022-08-12T01:32:06.296Z,100826.00
2022-08-12T01:34:38.432Z,100826.56
2022-08-12T01:37:09.742Z,100825.72
2022-08-12T01:40:35.492Z,100821.03
2022-08-12T01:42:48.159Z,100818.84
2022-08-12T01:45:17.593Z,100817.16
2022-08-12T01:48:00.696Z,100817.97
2022-08-12T01:50:52.667Z,100817.16
2022-08-12T01:53:20.719Z,100819.94
2022-08-12T01:55:49.114Z,100808.34
2022-08-12T01:58:16.500Z,100813.84
2022-08-12T02:00:59.274Z,100813.03
2022-08-12T02:04:09.903Z,100805.84
2022-08-12T02:06:58.820Z,100810.00
2022-08-12T02:10:50.971Z,100789.28
2022-08-12T02:13:49.288Z,100788.75
2022-08-12T02:16:22.444Z,100789.31
2022-08-12T02:19:23.185Z,100785.19
2022-08-12T02:22:04.695Z,100777.72
2022-08-12T02:24:35.377Z,100785.19
2022-08-12T02:27:02.807Z,100776.91
2022-08-12T02:29:30.333Z,100773.28
2022-08-12T02:32:00.392Z,100777.72
2022-08-12T02:34:28.387Z,100769.72
2022-08-12T02:36:56.116Z,100766.94
2022-08-12T02:39:26.695Z,100772.47
2022-08-12T02:41:55.956Z,100763.38
2022-08-12T02:44:23.660Z,100766.13
2022-08-12T02:46:53.604Z,100762.56
2022-08-12T02:49:31.466Z,100768.06
2022-08-12T02:51:59.846Z,100775.53
2022-08-12T02:54:30.604Z,100770.56
2022-08-12T02:56:59.102Z,100768.63
2022-08-12T02:59:27.278Z,100766.94
2022-08-12T03:01:57.115Z,100775.50
2022-08-12T03:04:57.567Z,100774.13
2022-08-12T03:07:25.977Z,100762.81
2022-08-12T03:10:15.841Z,100758.41
2022-08-12T03:12:49.383Z,100757.31
2022-08-12T03:15:23.786Z,100759.78
2022-08-12T03:18:24.091Z,100753.16
2022-08-12T03:20:46.155Z,100753.16
2022-08-12T03:23:19.348Z,100752.34
2022-08-12T03:25:59.052Z,100748.72
2022-08-12T03:28:45.218Z,100749.56
2022-08-12T03:31:13.116Z,100750.94
2022-08-12T03:33:41.698Z,100744.59
2022-08-12T03:36:09.979Z,100755.91
2022-08-12T03:38:40.416Z,100753.72
2022-08-12T03:41:34.923Z,100755.41
2022-08-12T03:44:25.977Z,100752.34
2022-08-12T03:47:25.031Z,100750.44
2022-08-12T03:50:10.954Z,100746.28
2022-08-12T03:52:56.867Z,100744.59
2022-08-12T03:55:43.036Z,100738.00
2022-08-12T03:58:28.935Z,100725.06
2022-08-12T04:00:58.705Z,100731.13
2022-08-12T04:03:44.797Z,100734.41
2022-08-12T04:06:12.217Z,100726.41
2022-08-12T04:08:39.665Z,100727.25
2022-08-12T04:11:32.025Z,100728.91
2022-08-12T04:14:14.279Z,100714.84
2022-08-12T04:16:41.707Z,100720.34
2022-08-12T04:19:09.526Z,100722.28
2022-08-12T04:21:37.804Z,100718.69
2022-08-12T04:24:25.464Z,100708.78
2022-08-12T04:26:55.919Z,100712.91
2022-08-12T04:30:15.898Z,100713.16
2022-08-12T04:32:12.499Z,100723.38
2022-08-12T04:34:39.957Z,100718.13
2022-08-12T04:37:07.397Z,100720.91
2022-08-12T04:39:34.933Z,100725.59
2022-08-12T04:42:02.375Z,100730.03
2022-08-12T04:44:31.942Z,100731.66
2022-08-12T04:46:59.384Z,100723.38
2022-08-12T04:49:27.211Z,100726.13
2022-08-12T04:51:59.203Z,100728.06
2022-08-12T04:54:27.489Z,100725.31
2022-08-12T04:57:03.294Z,100724.50
2022-08-12T04:59:48.300Z,100726.41
2022-08-12T05:02:20.515Z,100720.91
2022-08-12T05:04:52.439Z,100724.50
2022-08-12T05:07:20.675Z,100731.94
2022-08-12T05:10:01.132Z,100739.94
2022-08-12T05:12:39.844Z,100738.28
2022-08-12T05:15:19.563Z,100730.84
2022-08-12T05:17:55.951Z,100733.59
2022-08-12T05:20:25.845Z,100731.13
2022-08-12T05:23:13.044Z,100733.06
2022-08-12T05:25:45.015Z,100729.16
2022-08-12T05:28:13.282Z,100739.13
2022-08-12T05:30:42.662Z,100736.09
2022-08-12T05:33:11.317Z,100749.03
2022-08-12T05:35:41.744Z,100733.88
2022-08-12T05:38:28.289Z,100733.31
2022-08-12T05:40:55.809Z,100731.94
2022-08-12T05:43:23.247Z,100728.34
2022-08-12T05:45:51.758Z,100729.72
2022-08-12T05:48:19.284Z,100735.22
2022-08-12T05:50:46.812Z,100733.88
2022-08-12T05:53:14.296Z,100729.16
2022-08-12T05:55:41.767Z,100727.53
2022-08-12T05:58:09.190Z,100734.97
2022-08-12T06:00:37.187Z,100730.28
2022-08-12T06:03:06.008Z,100722.53
2022-08-12T06:05:42.990Z,100719.53
2022-08-12T06:08:24.136Z,100723.09
2022-08-12T06:10:51.768Z,100729.75
2022-08-12T06:13:28.519Z,100728.88
2022-08-12T06:16:07.403Z,100733.31
2022-08-12T06:18:35.283Z,100736.09
2022-08-12T06:21:02.712Z,100726.09
2022-08-12T06:23:30.435Z,100739.91
2022-08-12T06:25:58.187Z,100732.75
2022-08-12T06:28:25.720Z,100746.53
2022-08-12T06:31:22.080Z,100742.97
2022-08-12T06:33:57.889Z,100742.66
2022-08-12T06:36:30.025Z,100749.06
2022-08-12T06:39:00.123Z,100749.88
2022-08-12T06:42:30.686Z,100755.63
2022-08-12T06:44:33.545Z,100746.28
2022-08-12T06:47:01.013Z,100754.56
2022-08-12T06:49:33.521Z,100759.50
2022-08-12T06:52:01.003Z,100746.81
2022-08-12T06:54:31.722Z,100769.69
2022-08-12T06:57:57.265Z,100769.41
2022-08-12T06:59:50.964Z,100768.59
2022-08-12T07:02:22.846Z,100774.38
2022-08-12T07:04:50.375Z,100775.50
2022-08-12T07:07:18.485Z,100780.19
2022-08-12T07:10:06.653Z,100769.16
2022-08-12T07:12:33.297Z,100784.59
2022-08-12T07:15:01.848Z,100779.34
2022-08-12T07:17:35.907Z,100782.94
2022-08-12T07:20:05.848Z,100782.13
2022-08-12T07:22:33.412Z,100775.50
2022-08-12T07:25:30.381Z,100786.53
2022-08-12T07:28:16.840Z,100776.63
2022-08-12T07:30:45.480Z,100776.63
2022-08-12T07:33:12.978Z,100786.25
2022-08-12T07:35:50.058Z,100782.94
2022-08-12T07:38:34.582Z,100792.59
2022-08-12T07:41:16.320Z,100785.16
2022-08-12T07:43:48.257Z,100794.53
2022-08-12T07:46:20.534Z,100791.78
2022-08-12T07:48:51.447Z,100796.19
2022-08-12T07:51:24.699Z,100796.47
2022-08-12T07:54:00.912Z,100803.09
2022-08-12T07:56:31.300Z,100807.78
2022-08-12T07:58:59.295Z,100803.09
2022-08-12T08:01:27.085Z,100802.81
2022-08-12T08:04:18.469Z,100809.41
2022-08-12T08:06:46.862Z,100811.91
2022-08-12T08:09:15.470Z,100819.63
2022-08-12T08:12:01.658Z,100820.44
2022-08-12T08:14:29.444Z,100823.22
2022-08-12T08:17:00.089Z,100821.31
2022-08-12T08:19:29.220Z,100826.81
2022-08-12T08:21:57.393Z,100829.56
2022-08-12T08:24:27.004Z,100828.72
2022-08-12T08:26:56.850Z,100827.09
2022-08-12T08:29:24.478Z,100834.25
2022-08-12T08:31:54.727Z,100838.13
2022-08-12T08:34:33.805Z,100837.31
2022-08-12T08:37:32.553Z,100833.41
2022-08-12T08:40:20.920Z,100838.13
2022-08-12T08:42:51.419Z,100842.53
2022-08-12T08:45:19.114Z,100843.63
2022-08-12T08:47:49.534Z,100841.69
2022-08-12T08:50:16.964Z,100842.53
2022-08-12T08:52:44.778Z,100845.28
2022-08-12T08:55:20.821Z,100843.63
2022-08-12T08:57:53.905Z,100850.53
2022-08-12T09:00:21.600Z,100846.94
2022-08-12T09:02:58.756Z,100845.00
2022-08-12T09:05:27.902Z,100843.38
2022-08-12T09:10:45.414Z,100852.47
2022-08-12T09:13:29.410Z,100848.59
2022-08-12T09:16:20.085Z,100845.56
2022-08-12T09:18:52.286Z,100849.44
2022-08-12T09:26:56.596Z,100840.03
2022-08-12T09:30:11.581Z,100839.22
2022-08-12T09:32:57.088Z,100840.88
2022-08-12T09:35:02.195Z,100840.03
2022-08-12T09:37:57.713Z,100834.53
2022-08-12T09:40:57.072Z,100834.25
2022-08-12T09:43:25.665Z,100838.94
2022-08-12T09:46:21.156Z,100841.97
2022-08-12T09:48:44.566Z,100844.16
2022-08-12T09:51:23.532Z,100829.56
2022-08-12T09:54:06.837Z,100832.31
2022-08-12T09:57:00.932Z,100833.44
2022-08-12T10:00:13.623Z,100826.81
2022-08-12T10:02:42.084Z,100831.50
2022-08-12T10:05:06.004Z,100824.03
2022-08-12T10:07:40.466Z,100819.66
2022-08-12T10:10:24.162Z,100819.66
2022-08-12T10:13:33.856Z,100816.06
2022-08-12T10:16:05.555Z,100811.38
2022-08-12T10:18:37.345Z,100816.31
2022-08-12T10:21:23.299Z,100804.72
2022-08-12T10:23:56.676Z,100810.25
2022-08-12T10:26:43.188Z,100804.72
2022-08-12T10:30:37.670Z,100804.72
2022-08-12T10:32:44.038Z,100805.56
2022-08-12T10:35:09.453Z,100800.88
2022-08-12T10:38:32.227Z,100805.28
2022-08-12T10:40:31.655Z,100797.00
2022-08-12T10:43:19.691Z,100789.84
2022-08-12T10:45:53.342Z,100787.91
2022-08-12T10:48:33.237Z,100785.16
2022-08-12T10:51:51.594Z,100776.06
2022-08-12T10:53:54.285Z,100771.13
2022-08-12T10:56:36.926Z,100774.94
2022-08-12T10:59:05.730Z,100765.59
2022-08-12T11:04:18.927Z,100766.41
2022-08-12T11:04:41.282Z,100763.66
2022-08-12T11:08:36.997Z,100765.59
2022-08-12T11:10:02.602Z,100760.91
2022-08-12T11:12:54.807Z,100755.38
2022-08-12T11:15:33.249Z,100755.94
2022-08-12T11:18:11.983Z,100761.47
2022-08-12T11:20:47.504Z,100752.38
2022-08-12T11:23:25.800Z,100749.06
2022-08-12T11:26:05.429Z,100747.13
2022-08-12T11:28:37.103Z,100753.44
2022-08-12T11:31:12.355Z,100749.88
2022-08-12T11:34:05.953Z,100749.06
2022-08-12T11:36:33.365Z,100748.75
2022-08-12T11:39:07.505Z,100751.50
2022-08-12T11:41:43.168Z,100757.03
2022-08-12T11:44:42.983Z,100750.41
2022-08-12T11:46:59.300Z,100741.31
2022-08-12T11:49:31.719Z,100741.31
2022-08-12T11:52:01.298Z,100748.47
2022-08-12T11:54:29.801Z,100740.47
2022-08-12T11:56:59.825Z,100734.13
2022-08-12T12:02:20.072Z,100730.28
2022-08-12T12:04:52.728Z,100735.81
2022-08-12T12:07:34.050Z,100734.38
2022-08-12T12:10:14.149Z,100728.63
2022-08-12T12:12:50.231Z,100731.13
2022-08-12T12:15:24.971Z,100719.53
2022-08-12T12:18:07.292Z,100715.66
2022-08-12T12:20:40.219Z,100713.75
2022-08-12T12:23:08.147Z,100717.59
2022-08-12T12:26:06.635Z,100704.34
2022-08-12T12:28:36.789Z,100706.28
2022-08-12T12:31:05.266Z,100710.13
2022-08-12T12:33:56.738Z,100712.88
2022-08-12T12:36:29.966Z,100707.09
2022-08-12T12:39:00.170Z,100707.38
2022-08-12T12:42:41.596Z,100705.19
2022-08-12T12:44:26.142Z,100693.84
2022-08-12T12:47:28.849Z,100689.47
2022-08-12T12:49:53.846Z,100689.47
2022-08-12T12:52:21.511Z,100687.78
2022-08-12T12:54:58.632Z,100686.16
2022-08-12T12:57:36.427Z,100684.22
2022-08-12T13:00:18.403Z,100687.78
2022-08-12T13:02:53.724Z,100681.47
2022-08-12T13:05:28.042Z,100673.19
2022-08-12T13:08:02.466Z,100678.69
2022-08-12T13:10:36.818Z,100673.19
2022-08-12T13:14:08.995Z,100675.63
2022-08-12T13:15:54.072Z,100664.06
2022-08-12T13:18:36.393Z,100667.38
2022-08-12T13:21:15.515Z,100660.19
2022-08-12T13:23:57.863Z,100662.16
2022-08-12T13:26:25.395Z,100661.31
2022-08-12T13:28:55.936Z,100658.56
2022-08-12T13:31:27.110Z,100666.56
2022-08-12T13:34:34.700Z,100647.53
2022-08-12T13:36:42.260Z,100649.16
2022-08-12T13:39:09.907Z,100651.94
2022-08-12T13:41:37.734Z,100636.50
2022-08-12T13:44:06.573Z,100645.88
2022-08-12T13:46:40.727Z,100645.59
2022-08-12T13:49:17.326Z,100643.94
2022-08-12T13:52:01.144Z,100638.13
2022-08-12T13:54:29.695Z,100635.66
2022-08-12T13:56:57.176Z,100638.13
2022-08-12T13:59:26.744Z,100638.13
2022-08-12T14:01:57.535Z,100645.59
2022-08-12T14:04:25.086Z,100647.25
2022-08-12T14:06:54.856Z,100647.25
2022-08-12T14:09:22.604Z,100639.81
2022-08-12T14:11:58.741Z,100640.06
2022-08-12T14:14:31.748Z,100630.72
2022-08-12T14:17:05.701Z,100629.84
2022-08-12T14:19:45.136Z,100624.06
2022-08-12T14:22:20.229Z,100624.06
2022-08-12T14:24:47.621Z,100619.69
2022-08-12T14:28:02.704Z,100611.41
2022-08-12T14:30:17.167Z,100611.94
2022-08-12T14:32:51.795Z,100606.44
2022-08-12T14:35:20.269Z,100604.75
2022-08-12T14:37:55.386Z,100601.19
2022-08-12T14:40:29.320Z,100602.81
2022-08-12T14:42:59.082Z,100601.19
2022-08-12T14:45:45.030Z,100607.50
2022-08-12T14:48:16.715Z,100611.94
2022-08-12T14:51:03.240Z,100606.44
2022-08-12T14:59:58.221Z,100621.84
2022-08-12T15:02:21.084Z,100615.53
2022-08-12T15:04:57.027Z,100604.75
2022-08-12T15:07:33.167Z,100609.19
2022-08-12T15:10:12.650Z,100607.50
2022-08-12T15:12:40.565Z,100616.91
2022-08-12T15:15:10.294Z,100616.91
2022-08-12T15:17:39.061Z,100614.97
2022-08-12T15:20:31.328Z,100628.78
2022-08-12T15:22:56.590Z,100620.22
2022-08-12T15:25:28.833Z,100616.91
2022-08-12T15:28:11.254Z,100619.38
2022-08-12T15:30:50.079Z,100614.69
2022-08-12T15:33:21.087Z,100618.81
2022-08-12T15:35:54.038Z,100619.69
2022-08-12T15:38:25.947Z,100621.84
2022-08-12T15:40:59.848Z,100633.75
2022-08-12T15:43:51.458Z,100633.75
2022-08-12T15:46:17.144Z,100640.63
2022-08-12T15:48:46.660Z,100650.03
2022-08-12T15:51:59.263Z,100653.06
2022-08-12T15:54:33.854Z,100641.44
2022-08-12T15:57:10.763Z,100641.75
2022-08-12T16:00:00.019Z,100635.38
2022-08-12T16:02:50.365Z,100645.59
2022-08-12T16:06:11.147Z,100656.63
2022-08-12T16:08:18.698Z,100681.47
2022-08-12T16:10:52.999Z,100703.53
2022-08-12T16:13:32.409Z,100713.47
2022-08-12T16:16:22.395Z,100734.97
2022-08-12T16:18:56.124Z,100738.56
2022-08-12T16:21:50.586Z,100743.22
2022-08-12T16:24:12.416Z,100760.38
2022-08-12T16:26:41.983Z,100773.31
2022-08-12T16:29:15.286Z,100774.16
2022-08-12T16:31:44.558Z,100774.16
2022-08-12T16:34:26.049Z,100773.03
2022-08-12T16:37:09.433Z,100753.47
2022-08-12T16:40:00.967Z,100749.56
2022-08-12T16:42:28.458Z,100732.19
2022-08-12T16:45:05.040Z,100726.41
2022-08-12T16:47:58.906Z,100773.59
2022-08-12T16:50:30.619Z,100799.53
2022-08-12T16:53:03.374Z,100797.88
2022-08-12T16:55:41.732Z,100805.59
2022-08-12T16:58:28.327Z,100801.44
2022-08-12T17:01:01.836Z,100823.50
2022-08-12T17:03:32.559Z,100837.84
2022-08-12T17:06:06.503Z,100837.84
2022-08-12T17:08:33.915Z,100838.72
2022-08-12T17:11:01.384Z,100837.31
2022-08-12T17:13:29.674Z,100842.00
2022-08-12T17:16:05.822Z,100850.00
2022-08-12T17:18:43.165Z,100843.69
2022-08-12T17:21:40.639Z,100846.13
2022-08-12T17:24:15.345Z,100836.78
2022-08-12T17:26:45.370Z,100814.97
2022-08-12T17:29:24.152Z,100806.69
2022-08-12T17:32:08.806Z,100802.28
2022-08-12T17:34:54.916Z,100801.72
2022-08-12T17:37:22.396Z,100793.72
2022-08-12T17:40:16.018Z,100791.81
2022-08-12T17:42:47.504Z,100780.78
2022-08-12T17:45:19.350Z,100750.94
2022-08-12T17:48:01.335Z,100749.88
2022-08-12T17:50:34.815Z,100743.22
2022-08-12T17:53:05.409Z,100748.75
2022-08-12T17:55:44.054Z,100759.22
2022-08-12T17:58:37.036Z,100767.50
2022-08-12T18:01:06.113Z,100771.63
2022-08-12T18:03:58.209Z,100793.69
2022-08-12T18:06:28.318Z,100832.63
2022-08-12T18:08:58.783Z,100847.47
2022-08-12T18:12:05.101Z,100845.31
2022-08-12T18:14:36.950Z,100833.72
2022-08-12T18:17:08.785Z,100821.06
2022-08-12T18:20:05.421Z,100815.53
2022-08-12T18:22:32.879Z,100809.16
2022-08-12T18:25:03.859Z,100823.78
2022-08-12T18:27:44.473Z,100816.91
2022-08-12T18:30:29.066Z,100808.03
2022-08-12T18:33:04.111Z,100787.09
2022-08-12T18:35:47.927Z,100777.69
2022-08-12T18:38:24.888Z,100766.41
2022-08-12T18:41:21.117Z,100765.84
2022-08-12T18:44:00.072Z,100763.66
2022-08-12T18:46:54.091Z,100749.03
2022-08-12T18:49:33.091Z,100744.34
2022-08-12T18:52:05.733Z,100743.25
2022-08-12T18:54:41.450Z,100753.16
2022-08-12T18:57:46.037Z,100772.19
2022-08-12T19:00:07.738Z,100790.97
2022-08-12T19:02:40.140Z,100816.88
2022-08-12T19:05:12.149Z,100826.81
2022-08-12T19:07:49.734Z,100835.66
2022-08-12T19:10:27.495Z,100842.53
2022-08-12T19:13:18.789Z,100848.06
2022-08-12T19:15:53.393Z,100855.22
2022-08-12T19:18:22.388Z,100856.31
2022-08-12T19:20:50.741Z,100851.91
2022-08-12T19:23:21.025Z,100851.91
2022-08-12T19:25:59.805Z,100853.28
2022-08-12T19:28:35.646Z,100855.75
2022-08-12T19:31:44.910Z,100858.50
2022-08-12T19:37:22.946Z,100864.03
2022-08-12T19:40:09.825Z,100863.78
2022-08-12T19:42:57.598Z,100877.06
2022-08-12T19:45:42.186Z,100883.34
2022-08-12T19:48:17.216Z,100898.84
2022-08-12T19:50:50.298Z,100907.34
2022-08-12T19:53:24.172Z,100898.25
2022-08-12T19:55:55.327Z,100905.72
2022-08-12T19:58:23.402Z,100902.66
2022-08-12T20:00:54.353Z,100898.25
2022-08-12T20:03:38.484Z,100889.44
2022-08-12T20:06:16.067Z,100888.31
2022-08-12T20:08:56.681Z,100895.75
2022-08-12T20:12:09.281Z,100901.28
2022-08-12T20:14:18.919Z,100909.56
2022-08-12T20:16:53.124Z,100902.41
2022-08-12T20:19:52.801Z,100900.19
2022-08-12T20:22:23.579Z,100905.41
2022-08-12T20:24:55.230Z,100905.72
2022-08-12T20:27:29.475Z,100907.63
2022-08-12T20:30:13.962Z,100905.72
2022-08-12T20:33:00.908Z,100901.53
2022-08-12T20:35:39.056Z,100900.19
2022-08-12T20:38:26.335Z,100916.75
2022-08-12T20:40:55.666Z,100931.63
2022-08-12T20:43:28.153Z,100923.09
2022-08-12T20:45:59.368Z,100913.13
2022-08-12T20:48:28.737Z,100920.09
2022-08-12T20:51:04.268Z,100919.50
2022-08-12T20:53:57.683Z,100922.25
2022-08-12T20:56:30.786Z,100919.19
2022-08-12T20:59:00.055Z,100905.41
2022-08-12T21:01:36.567Z,100911.22
2022-08-12T21:04:33.821Z,100919.50
2022-08-12T21:07:04.498Z,100918.38
2022-08-12T21:09:41.551Z,100924.16
2022-08-12T21:12:37.432Z,100915.38
2022-08-12T21:15:22.811Z,100906.53
2022-08-12T21:18:12.002Z,100904.84
2022-08-12T21:20:52.702Z,100906.53
2022-08-12T21:23:21.578Z,100901.00
2022-08-12T21:25:56.817Z,100897.13
2022-08-12T21:28:31.489Z,100910.09
2022-08-12T21:32:36.085Z,100909.88
2022-08-12T21:34:07.649Z,100913.69
2022-08-12T21:36:40.280Z,100908.16
2022-08-12T21:39:21.170Z,100895.50
2022-08-12T21:41:53.965Z,100890.78
2022-08-12T21:45:44.171Z,100885.28
2022-08-12T21:47:21.591Z,100877.59
2022-08-12T21:50:03.845Z,100877.81
2022-08-12T21:52:36.691Z,100877.28
2022-08-12T21:55:08.616Z,100883.34
2022-08-12T21:57:53.607Z,100880.03
2022-08-12T22:00:31.913Z,100875.63
2022-08-12T22:04:01.491Z,100861.28
2022-08-12T22:06:31.481Z,100857.16
2022-08-12T22:09:15.389Z,100859.91
2022-08-12T22:11:56.342Z,100858.81
2022-08-12T22:14:28.100Z,100861.56
2022-08-12T22:16:56.019Z,100862.69
2022-08-12T22:19:23.693Z,100870.38
2022-08-12T22:21:56.242Z,100857.41
2022-08-12T22:24:29.747Z,100863.78
2022-08-12T22:27:08.150Z,100856.31
2022-08-12T22:30:05.635Z,100861.84
2022-08-12T22:32:38.711Z,100862.66
2022-08-12T22:35:29.534Z,100862.09
2022-08-12T22:38:19.382Z,100866.25
2022-08-12T22:40:50.728Z,100856.34
2022-08-12T22:43:58.876Z,100856.63
2022-08-12T22:46:52.045Z,100853.28
2022-08-12T22:49:36.889Z,100847.22
2022-08-12T22:52:18.685Z,100833.72
2022-08-12T22:55:03.176Z,100825.69
2022-08-12T22:57:53.305Z,100829.28
2022-08-12T23:00:24.160Z,100820.19
2022-08-12T23:03:00.831Z,100819.38
2022-08-12T23:05:57.819Z,100822.94
2022-08-12T23:08:22.624Z,100821.00
2022-08-12T23:10:50.611Z,100818.25
2022-08-12T23:13:43.268Z,100823.50
2022-08-12T23:16:28.255Z,100828.19
2022-08-12T23:19:09.491Z,100827.63
2022-08-12T23:22:04.513Z,100837.00
2022-08-12T23:24:30.011Z,100828.47
2022-08-12T23:27:16.283Z,100828.19
2022-08-12T23:30:17.809Z,100829.00
2022-08-12T23:32:38.958Z,100821.03
2022-08-12T23:35:07.251Z,100816.59
2022-08-12T23:37:47.863Z,100819.09
2022-08-12T23:40:22.179Z,100817.69
2022-08-12T23:42:56.395Z,100818.00
2022-08-12T23:45:31.423Z,100818.81
2022-08-12T23:48:01.703Z,100808.06
2022-08-12T23:50:34.558Z,100804.47
2022-08-12T23:53:05.515Z,100806.13
2022-08-12T23:55:40.614Z,100795.38
2022-08-12T23:58:20.937Z,100805.00
